createdAt,value
2023-04-10T00:00:36.517Z,13.07
2023-04-10T00:06:57.928Z,14.15
2023-04-10T00:17:24.321Z,15.23
2023-04-10T00:20:39.625Z,15.10
2023-04-10T00:23:54.860Z,16.52
2023-04-10T00:27:19.657Z,17.08
2023-04-10T00:30:46.683Z,15.98
2023-04-10T00:34:10.563Z,13.40
2023-04-10T00:37:15.047Z,14.52
2023-04-10T00:44:06.658Z,11.63
2023-04-10T00:51:49.264Z,10.80
2023-04-10T00:54:30.741Z,10.60
2023-04-10T00:58:31.996Z,10.30
2023-04-10T01:05:25.566Z,10.65
2023-04-10T01:12:18.091Z,11.05
2023-04-10T01:23:08.948Z,7.85
2023-04-10T01:30:11.557Z,6.88
2023-04-10T01:33:35.694Z,7.22
2023-04-10T01:36:44.443Z,7.30
2023-04-10T01:40:04.753Z,7.15
2023-04-10T01:43:23.327Z,6.32
2023-04-10T01:47:18.670Z,6.35
2023-04-10T01:54:17.866Z,8.07
2023-04-10T01:57:18.973Z,6.50
2023-04-10T02:00:47.103Z,6.90
2023-04-10T02:04:00.362Z,6.43
2023-04-10T02:08:55.152Z,6.70
2023-04-10T02:11:56.880Z,6.72
2023-04-10T02:18:21.799Z,6.63
2023-04-10T02:24:01.233Z,20.73
2023-04-10T02:26:02.249Z,37.83
2023-04-10T02:29:25.896Z,45.08
2023-04-10T02:32:43.864Z,39.97
2023-04-10T02:35:41.894Z,30.88
2023-04-10T02:39:15.429Z,29.58
2023-04-10T02:42:48.494Z,25.83
2023-04-10T02:46:02.646Z,24.98
2023-04-10T02:53:06.759Z,12.85
2023-04-10T02:56:24.767Z,9.07
2023-04-10T03:00:25.891Z,6.28
2023-04-10T03:04:00.079Z,7.57
2023-04-10T03:07:30.729Z,7.88
2023-04-10T03:10:42.176Z,7.03
2023-04-10T03:13:39.565Z,7.40
2023-04-10T03:17:02.740Z,8.32
2023-04-10T03:20:15.579Z,8.23
2023-04-10T03:23:44.603Z,8.45
2023-04-10T03:27:03.465Z,7.88
2023-04-10T03:30:18.047Z,7.43
2023-04-10T03:33:52.644Z,6.47
2023-04-10T03:37:45.040Z,7.63
2023-04-10T03:41:08.200Z,7.60
2023-04-10T03:44:14.534Z,6.65
2023-04-10T03:51:08.462Z,6.53
2023-04-10T03:54:42.769Z,6.47
2023-04-10T03:58:43.991Z,7.15
2023-04-10T04:02:08.544Z,7.03
2023-04-10T04:08:58.157Z,5.68
2023-04-10T04:12:06.693Z,6.07
2023-04-10T04:16:09.814Z,7.00
2023-04-10T04:19:53.879Z,8.48
2023-04-10T04:23:36.036Z,11.38
2023-04-10T04:31:09.551Z,18.83
2023-04-10T04:34:28.727Z,22.42
2023-04-10T04:37:33.357Z,28.85
2023-04-10T04:40:45.216Z,35.25
2023-04-10T04:44:05.918Z,37.85
2023-04-10T04:47:34.591Z,48.53
2023-04-10T04:57:35.567Z,46.28
2023-04-10T05:01:00.503Z,42.30
2023-04-10T05:04:09.450Z,45.45
2023-04-10T05:08:09.909Z,58.35
2023-04-10T05:11:24.301Z,89.82
2023-04-10T05:14:37.865Z,71.78
2023-04-10T05:20:55.367Z,67.50
2023-04-10T05:24:50.371Z,60.97
2023-04-10T05:28:16.021Z,66.85
2023-04-10T05:31:54.728Z,62.83
2023-04-10T05:35:15.490Z,53.58
2023-04-10T05:42:48.314Z,57.17
2023-04-10T05:46:29.998Z,36.88
2023-04-10T05:50:03.835Z,32.42
2023-04-10T05:53:39.310Z,27.73
2023-04-10T06:03:57.912Z,18.52
2023-04-10T06:10:30.732Z,23.42
2023-04-10T06:13:43.551Z,25.30
2023-04-10T06:17:39.662Z,26.67
2023-04-10T06:21:10.771Z,32.17
2023-04-10T06:24:53.442Z,31.85
2023-04-10T06:29:11.886Z,26.40
2023-04-10T06:32:43.324Z,29.00
2023-04-10T06:39:21.743Z,30.77
2023-04-10T06:43:00.151Z,32.65
2023-04-10T06:47:59.270Z,25.52
2023-04-10T06:50:05.161Z,19.25
2023-04-10T06:53:22.645Z,19.27
2023-04-10T06:56:51.726Z,18.85
2023-04-10T07:03:12.513Z,12.90
2023-04-10T07:06:40.892Z,13.10
2023-04-10T07:09:52.872Z,10.13
2023-04-10T07:13:22.572Z,10.82
2023-04-10T07:16:45.151Z,11.27
2023-04-10T07:20:15.541Z,9.32
2023-04-10T07:23:33.393Z,10.30
2023-04-10T07:26:40.325Z,8.00
2023-04-10T07:29:52.948Z,8.23
2023-04-10T07:33:15.186Z,8.70
2023-04-10T07:36:32.235Z,9.10
2023-04-10T07:39:27.124Z,10.40
2023-04-10T07:42:42.105Z,11.68
2023-04-10T07:45:44.779Z,13.38
2023-04-10T07:48:59.988Z,13.77
2023-04-10T07:52:46.660Z,14.38
2023-04-10T07:56:05.997Z,12.73
2023-04-10T08:02:24.960Z,7.28
2023-04-10T08:05:46.640Z,7.65
2023-04-10T08:12:52.949Z,11.05
2023-04-10T08:16:07.748Z,9.32
2023-04-10T08:19:35.356Z,6.70
2023-04-10T08:22:48.038Z,8.80
2023-04-10T08:29:54.912Z,6.35
2023-04-10T08:33:47.867Z,5.03
2023-04-10T08:40:15.891Z,4.13
2023-04-10T08:43:44.409Z,4.03
2023-04-10T08:47:30.199Z,4.63
2023-04-10T08:50:39.347Z,3.83
2023-04-10T08:53:42.652Z,4.28
2023-04-10T08:56:49.189Z,2.88
2023-04-10T08:59:41.992Z,3.47
2023-04-10T09:03:00.815Z,3.53
2023-04-10T09:07:10.872Z,3.40
2023-04-10T09:10:00.838Z,3.72
2023-04-10T09:16:35.054Z,3.17
2023-04-10T09:23:54.043Z,2.25
2023-04-10T09:30:24.784Z,3.60
2023-04-10T09:33:48.366Z,2.65
2023-04-10T09:37:11.765Z,3.15
2023-04-10T09:40:28.486Z,2.88
2023-04-10T09:43:56.479Z,3.00
2023-04-10T09:47:21.188Z,3.30
2023-04-10T09:51:01.067Z,3.78
2023-04-10T09:54:15.816Z,3.10
2023-04-10T09:57:40.096Z,3.70
2023-04-10T10:01:10.252Z,3.08
2023-04-10T10:04:49.293Z,3.40
2023-04-10T10:08:15.962Z,4.15
2023-04-10T10:11:23.789Z,3.92
2023-04-10T10:17:58.820Z,4.10
2023-04-10T10:21:21.859Z,4.00
2023-04-10T10:31:03.900Z,3.47
2023-04-10T10:34:15.557Z,3.80
2023-04-10T10:42:47.038Z,4.15
2023-04-10T10:44:59.334Z,3.95
2023-04-10T10:48:35.697Z,3.33
2023-04-10T10:53:29.944Z,3.65
2023-04-10T10:55:03.815Z,2.78
2023-04-10T11:02:04.252Z,2.97
2023-04-10T11:13:26.317Z,2.00
2023-04-10T11:13:42.852Z,2.95
2023-04-10T11:17:09.291Z,2.47
2023-04-10T11:21:01.164Z,2.65
2023-04-10T11:24:36.680Z,2.90
2023-04-10T11:28:13.564Z,3.03
2023-04-10T11:32:47.792Z,2.85
2023-04-10T11:42:43.850Z,3.05
2023-04-10T11:45:55.848Z,3.30
2023-04-10T11:49:05.641Z,3.80
2023-04-10T11:53:19.755Z,3.60
2023-04-10T11:56:23.900Z,3.83
2023-04-10T11:59:31.716Z,2.95
2023-04-10T12:06:42.334Z,3.40
2023-04-10T12:10:20.310Z,4.30
2023-04-10T12:13:44.278Z,5.50
2023-04-10T12:17:24.829Z,4.95
2023-04-10T12:21:17.859Z,4.97
2023-04-10T12:24:35.789Z,4.43
2023-04-10T12:28:15.724Z,4.80
2023-04-10T12:31:25.304Z,3.78
2023-04-10T12:34:45.895Z,3.55
2023-04-10T12:38:34.645Z,4.70
2023-04-10T12:41:47.824Z,4.68
2023-04-10T12:45:18.735Z,5.03
2023-04-10T12:48:54.075Z,4.40
2023-04-10T12:52:23.414Z,4.93
2023-04-10T12:59:09.804Z,4.70
2023-04-10T13:02:21.721Z,3.83
2023-04-10T13:05:51.079Z,4.93
2023-04-10T13:09:12.988Z,4.45
2023-04-10T13:12:20.795Z,4.50
2023-04-10T13:15:24.639Z,4.00
2023-04-10T13:18:39.134Z,3.92
2023-04-10T13:21:55.489Z,4.45
2023-04-10T13:25:08.912Z,4.32
2023-04-10T13:28:43.813Z,3.25
2023-04-10T13:32:23.275Z,2.78
2023-04-10T13:35:50.200Z,3.65
2023-04-10T13:39:07.649Z,3.60
2023-04-10T13:42:42.514Z,3.80
2023-04-10T13:45:53.323Z,4.32
2023-04-10T13:49:20.895Z,3.95
2023-04-10T13:52:25.456Z,3.50
2023-04-10T13:55:52.804Z,4.22
2023-04-10T13:59:06.787Z,4.18
2023-04-10T14:02:04.326Z,4.95
2023-04-10T14:05:08.190Z,5.28
2023-04-10T14:08:37.253Z,5.78
2023-04-10T14:11:57.268Z,12.15
2023-04-10T14:15:00.374Z,6.05
2023-04-10T14:18:24.026Z,6.95
2023-04-10T14:21:26.406Z,5.05
2023-04-10T14:24:23.968Z,6.25
2023-04-10T14:27:34.573Z,7.07
2023-04-10T14:33:52.685Z,7.97
2023-04-10T14:37:49.148Z,7.20
2023-04-10T14:41:20.208Z,8.15
2023-04-10T14:44:49.409Z,7.93
2023-04-10T14:50:44.828Z,8.82
2023-04-10T14:51:39.819Z,8.65
2023-04-10T14:54:43.884Z,8.75
2023-04-10T15:01:10.976Z,9.30
2023-04-10T15:04:28.590Z,8.05
2023-04-10T15:07:35.909Z,8.68
2023-04-10T15:13:59.799Z,9.60
2023-04-10T15:17:33.510Z,8.10
2023-04-10T15:21:09.501Z,7.82
2023-04-10T15:24:46.966Z,7.40
2023-04-10T15:28:18.153Z,7.13
2023-04-10T15:35:19.559Z,9.18
2023-04-10T15:38:17.863Z,6.25
2023-04-10T15:41:20.612Z,6.93
2023-04-10T15:44:30.949Z,6.22
2023-04-10T15:47:48.038Z,6.10
2023-04-10T15:54:13.393Z,6.20
2023-04-10T15:57:33.734Z,5.90
2023-04-10T16:01:44.473Z,4.43
2023-04-10T16:03:54.612Z,6.18
2023-04-10T16:10:19.047Z,4.43
2023-04-10T16:13:42.298Z,4.65
2023-04-10T16:24:12.493Z,1.70
2023-04-10T16:27:32.845Z,1.70
2023-04-10T16:30:36.437Z,2.10
2023-04-10T16:33:57.991Z,2.15
2023-04-10T16:36:59.145Z,2.35
2023-04-10T16:40:07.862Z,2.50
2023-04-10T16:46:50.039Z,1.88
2023-04-10T16:53:31.137Z,1.60
2023-04-10T17:00:24.503Z,1.73
2023-04-10T17:07:48.806Z,1.10
2023-04-10T17:11:29.686Z,1.63
2023-04-10T17:14:45.639Z,1.35
2023-04-10T17:17:52.563Z,1.15
2023-04-10T17:27:39.058Z,1.15
2023-04-10T17:31:17.575Z,1.13
2023-04-10T17:35:16.771Z,1.35
2023-04-10T17:38:13.334Z,1.40
2023-04-10T17:41:11.081Z,1.00
2023-04-10T17:44:17.398Z,1.35
2023-04-10T17:48:02.204Z,1.08
2023-04-10T17:51:21.027Z,0.90
2023-04-10T17:54:44.789Z,0.95
2023-04-10T17:58:04.909Z,1.25
2023-04-10T18:01:14.680Z,1.55
2023-04-10T18:04:17.672Z,1.40
2023-04-10T18:07:30.923Z,1.23
2023-04-10T18:14:16.084Z,1.48
2023-04-10T18:18:35.711Z,1.80
2023-04-10T18:22:05.172Z,1.27
2023-04-10T18:25:47.947Z,1.40
2023-04-10T18:29:23.731Z,2.13
2023-04-10T18:32:37.969Z,1.15
2023-04-10T18:39:06.323Z,1.85
2023-04-10T18:42:33.842Z,3.80
2023-04-10T18:45:42.468Z,1.75
2023-04-10T18:48:54.212Z,2.05
2023-04-10T18:52:01.744Z,1.85
2023-04-10T18:55:38.395Z,2.38
2023-04-10T19:03:07.697Z,1.45
2023-04-10T19:06:24.731Z,2.60
2023-04-10T19:12:22.805Z,1.95
2023-04-10T19:16:14.957Z,2.90
2023-04-10T19:19:41.171Z,3.50
2023-04-10T19:23:09.685Z,2.97
2023-04-10T19:26:41.947Z,2.70
2023-04-10T19:29:49.979Z,2.55
2023-04-10T19:39:47.627Z,1.75
2023-04-10T19:43:01.352Z,3.05
2023-04-10T19:46:39.726Z,2.47
2023-04-10T19:46:42.437Z,2.40
2023-04-10T19:50:18.480Z,3.45
2023-04-10T19:57:07.887Z,2.90
2023-04-10T20:00:10.226Z,4.00
2023-04-10T20:06:47.771Z,3.78
2023-04-10T20:10:30.533Z,3.70
2023-04-10T20:16:58.320Z,4.45
2023-04-10T20:20:20.845Z,4.97
2023-04-10T20:23:28.054Z,3.40
2023-04-10T20:26:54.309Z,4.00
2023-04-10T20:30:15.718Z,3.00
2023-04-10T20:36:46.185Z,3.63
2023-04-10T20:43:37.844Z,4.35
2023-04-10T20:46:59.177Z,5.60
2023-04-10T20:50:20.851Z,5.10
2023-04-10T20:53:27.348Z,3.80
2023-04-10T20:56:50.346Z,3.67
2023-04-10T21:00:09.198Z,3.95
2023-04-10T21:03:35.552Z,3.83
2023-04-10T21:13:46.334Z,4.15
2023-04-10T21:17:42.363Z,4.25
2023-04-10T21:21:17.439Z,3.92
2023-04-10T21:24:16.267Z,4.82
2023-04-10T21:30:48.109Z,5.03
2023-04-10T21:34:09.061Z,4.75
2023-04-10T21:37:57.068Z,4.53
2023-04-10T21:44:51.867Z,5.53
2023-04-10T21:51:27.088Z,6.13
2023-04-10T21:54:54.790Z,6.70
2023-04-10T21:58:29.666Z,5.28
2023-04-10T22:02:18.775Z,4.63
2023-04-10T22:06:02.977Z,6.18
2023-04-10T22:16:13.258Z,4.85
2023-04-10T22:19:44.136Z,6.00
2023-04-10T22:22:42.920Z,4.40
2023-04-10T22:25:53.829Z,5.82
2023-04-10T22:28:53.766Z,5.53
2023-04-10T22:32:03.141Z,5.75
2023-04-10T22:38:37.155Z,4.85
2023-04-10T22:45:03.057Z,5.32
2023-04-10T22:48:09.843Z,4.70
2023-04-10T22:51:41.342Z,5.00
2023-04-10T22:55:16.704Z,4.80
2023-04-10T22:58:39.830Z,5.28
2023-04-10T23:05:27.637Z,5.68
2023-04-10T23:09:16.513Z,5.43
2023-04-10T23:12:28.853Z,6.00
2023-04-10T23:15:41.445Z,6.07
2023-04-10T23:19:03.086Z,5.93
2023-04-10T23:22:14.193Z,6.30
2023-04-10T23:25:50.704Z,7.55
2023-04-10T23:32:32.043Z,5.60
2023-04-10T23:35:47.379Z,6.32
2023-04-10T23:38:48.317Z,6.00
2023-04-10T23:45:25.430Z,6.13
2023-04-10T23:48:22.812Z,6.10
2023-04-10T23:51:46.394Z,6.32
2023-04-10T23:55:53.609Z,5.90
2023-04-10T23:59:08.464Z,5.53
